LFBP

Pau Pyrénées Airport

Airport
ICAO code
LFBP
IATA Code
PUF
Summary
ICAO Region
EUR
ICAO Territory
Location

Uzein, Aquitaine

Serving
Pau
Elevation
616 ft
Coordinates
43° 22' 46" N , 0° 25' 6" W
KCC
Metar
Observation
LFBP 091830Z AUTO 31007KT 3000 -RA BR BKN002 BKN008 OVC014 10/10 Q1001 TEMPO RA BKN008
Station
Pau
Date/Time
2022-12-09 18:30:00
Wind direction
310°
Wind speed
07 kts
Lowest cloud amount
broken clouds
Temperature
10°C
Dew point
10°C
Humidity
100%
QNH
1001 hPa
Weather condition
n/a

Description

Pau Pyrénées Airport (French: Aéroport Pau Pyrénées) is an airport serving Pau, France. It is located 10 km northwest of Pau in Uzein.

Climatology

Temperate Marine climate/Oceanic climate (Köppen climate classification Cfb). Moderately cool summer and comparatively warm winter with a temperature range of only 14°C. Prevailing south-westerly winds from the Atlantic Ocean.

Runways

Designator Length Width Surface Rops
13/31 2500 45 ASP Yes/Yes

Airport map

Aerial View

SKYbrary Partners:

Safety knowledge contributed by: